LDSP/SPU METAR and TAF weather

Enter ICAO airport designator
Station Type Date Time Source
LDSP METAR 2019/02/16 07:00 UTC NOAA

LDSP 160700Z 04003KT 020V090 CAVOK 07/M04 Q1030 NOSIG


Station Type Date Time Source
LDSP Decoded METAR 2019/02/16 07:00 UTC NOAA

Split / Resnik, Croatia (LDSP) 43-32N 016-18E 21M
Feb 16, 2019 - 02:00 AM EST / 2019.02.16 0700 UTC
Wind: from the NE (040 degrees) at 3 MPH (3 KT) (direction variable):0
Visibility: greater than 7 mile(s):0
Temperature: 44 F (7 C)
Dew Point: 24 F (-4 C)
Relative Humidity: 45%
Pressure (altimeter): 30.42 in. Hg (1030 hPa)
ob: LDSP 160700Z 04003KT 020V090 CAVOK 07/M04 Q1030 NOSIG
cycle: 7

Station Type Date Time Source
LDSP TAF 2019/02/16 06:27 UTC NOAA

TAF LDSP 160525Z 1606/1706 31010KT CAVOK TX13/1614Z TN02/1705Z
TEMPO 1612/1615 23006KT


Example: see airport list